sensor_id;sensor_type;location;lat;lon;timestamp;P1;durP1;ratioP1;P2;durP2;ratioP2
18267;SDS011;9260;49.998;19.880;2023-03-19T00:06:02;251.17;;;113.57;;
18267;SDS011;9260;49.998;19.880;2023-03-19T00:16:07;257.20;;;120.57;;
18267;SDS011;9260;49.998;19.880;2023-03-19T00:26:11;251.70;;;115.90;;
18267;SDS011;9260;49.998;19.880;2023-03-19T00:36:16;243.77;;;110.13;;
18267;SDS011;9260;49.998;19.880;2023-03-19T00:46:19;256.00;;;115.37;;
18267;SDS011;9260;49.998;19.880;2023-03-19T00:56:25;250.53;;;113.80;;
18267;SDS011;9260;49.998;19.880;2023-03-19T01:06:28;246.83;;;111.30;;
18267;SDS011;9260;49.998;19.880;2023-03-19T01:16:33;240.93;;;112.20;;
18267;SDS011;9260;49.998;19.880;2023-03-19T01:26:38;238.23;;;112.33;;
18267;SDS011;9260;49.998;19.880;2023-03-19T01:36:52;234.13;;;109.37;;
18267;SDS011;9260;49.998;19.880;2023-03-19T01:47:03;228.97;;;107.40;;
18267;SDS011;9260;49.998;19.880;2023-03-19T01:57:34;238.67;;;109.50;;
18267;SDS011;9260;49.998;19.880;2023-03-19T02:08:05;229.93;;;106.20;;
18267;SDS011;9260;49.998;19.880;2023-03-19T02:18:13;222.37;;;102.13;;
18267;SDS011;9260;49.998;19.880;2023-03-19T02:28:21;223.53;;;103.90;;
18267;SDS011;9260;49.998;19.880;2023-03-19T02:38:27;224.13;;;107.67;;
18267;SDS011;9260;49.998;19.880;2023-03-19T02:48:37;228.90;;;104.63;;
18267;SDS011;9260;49.998;19.880;2023-03-19T02:58:41;228.10;;;106.33;;
18267;SDS011;9260;49.998;19.880;2023-03-19T03:08:46;220.27;;;101.40;;
18267;SDS011;9260;49.998;19.880;2023-03-19T03:18:50;234.40;;;108.53;;
18267;SDS011;9260;49.998;19.880;2023-03-19T03:28:55;233.77;;;105.93;;
18267;SDS011;9260;49.998;19.880;2023-03-19T03:38:59;229.67;;;109.27;;
18267;SDS011;9260;49.998;19.880;2023-03-19T03:49:04;233.80;;;111.73;;
18267;SDS011;9260;49.998;19.880;2023-03-19T03:59:07;242.73;;;114.90;;
18267;SDS011;9260;49.998;19.880;2023-03-19T04:09:12;226.80;;;105.07;;
18267;SDS011;9260;49.998;19.880;2023-03-19T04:19:18;226.10;;;100.43;;
18267;SDS011;9260;49.998;19.880;2023-03-19T04:29:23;233.47;;;106.13;;
18267;SDS011;9260;49.998;19.880;2023-03-19T04:39:28;228.97;;;104.97;;
18267;SDS011;9260;49.998;19.880;2023-03-19T04:49:35;241.97;;;110.67;;
18267;SDS011;9260;49.998;19.880;2023-03-19T04:59:38;222.83;;;107.97;;
18267;SDS011;9260;49.998;19.880;2023-03-19T05:09:46;226.37;;;109.80;;
18267;SDS011;9260;49.998;19.880;2023-03-19T05:19:55;227.23;;;106.43;;
18267;SDS011;9260;49.998;19.880;2023-03-19T05:30:01;231.90;;;108.57;;
18267;SDS011;9260;49.998;19.880;2023-03-19T05:40:31;235.53;;;112.73;;
18267;SDS011;9260;49.998;19.880;2023-03-19T05:50:50;230.70;;;109.20;;
18267;SDS011;9260;49.998;19.880;2023-03-19T06:00:55;243.00;;;110.67;;
18267;SDS011;9260;49.998;19.880;2023-03-19T06:11:01;240.10;;;117.30;;
18267;SDS011;9260;49.998;19.880;2023-03-19T06:21:07;257.97;;;128.90;;
18267;SDS011;9260;49.998;19.880;2023-03-19T06:31:12;245.57;;;122.60;;
18267;SDS011;9260;49.998;19.880;2023-03-19T06:41:40;259.87;;;122.23;;
18267;SDS011;9260;49.998;19.880;2023-03-19T06:51:52;264.03;;;124.87;;
18267;SDS011;9260;49.998;19.880;2023-03-19T07:01:56;269.63;;;129.80;;
18267;SDS011;9260;49.998;19.880;2023-03-19T07:12:01;283.57;;;135.63;;
18267;SDS011;9260;49.998;19.880;2023-03-19T07:22:05;279.43;;;134.43;;
18267;SDS011;9260;49.998;19.880;2023-03-19T07:32:10;267.13;;;132.57;;
18267;SDS011;9260;49.998;19.880;2023-03-19T07:42:13;256.50;;;126.70;;
18267;SDS011;9260;49.998;19.880;2023-03-19T07:52:18;251.43;;;133.13;;
18267;SDS011;9260;49.998;19.880;2023-03-19T08:02:22;252.90;;;134.67;;
18267;SDS011;9260;49.998;19.880;2023-03-19T08:12:27;238.60;;;126.83;;
18267;SDS011;9260;49.998;19.880;2023-03-19T08:22:33;227.50;;;125.30;;
18267;SDS011;9260;49.998;19.880;2023-03-19T08:32:38;237.97;;;136.13;;
18267;SDS011;9260;49.998;19.880;2023-03-19T08:42:42;237.63;;;134.70;;
18267;SDS011;9260;49.998;19.880;2023-03-19T08:52:47;225.45;;;130.07;;
18267;SDS011;9260;49.998;19.880;2023-03-19T09:02:51;221.52;;;130.82;;
18267;SDS011;9260;49.998;19.880;2023-03-19T09:12:56;213.20;;;127.15;;
18267;SDS011;9260;49.998;19.880;2023-03-19T09:22:59;210.63;;;125.70;;
18267;SDS011;9260;49.998;19.880;2023-03-19T09:33:04;213.25;;;133.10;;
18267;SDS011;9260;49.998;19.880;2023-03-19T09:43:17;205.80;;;128.18;;
18267;SDS011;9260;49.998;19.880;2023-03-19T09:53:39;201.40;;;126.43;;
18267;SDS011;9260;49.998;19.880;2023-03-19T10:03:54;199.82;;;133.27;;
18267;SDS011;9260;49.998;19.880;2023-03-19T10:14:38;201.45;;;138.05;;
18267;SDS011;9260;49.998;19.880;2023-03-19T10:25:19;201.52;;;128.45;;
18267;SDS011;9260;49.998;19.880;2023-03-19T10:35:31;205.15;;;133.02;;
18267;SDS011;9260;49.998;19.880;2023-03-19T10:45:44;204.38;;;134.52;;
18267;SDS011;9260;49.998;19.880;2023-03-19T10:55:52;200.05;;;140.65;;
18267;SDS011;9260;49.998;19.880;2023-03-19T11:06:03;193.15;;;140.35;;
18267;SDS011;9260;49.998;19.880;2023-03-19T11:16:20;198.05;;;144.70;;
18267;SDS011;9260;49.998;19.880;2023-03-19T11:26:24;199.63;;;145.68;;
18267;SDS011;9260;49.998;19.880;2023-03-19T11:36:31;198.65;;;142.95;;
18267;SDS011;9260;49.998;19.880;2023-03-19T11:46:43;204.27;;;151.75;;
18267;SDS011;9260;49.998;19.880;2023-03-19T11:56:59;199.93;;;145.02;;
18267;SDS011;9260;49.998;19.880;2023-03-19T12:07:08;196.18;;;144.52;;
18267;SDS011;9260;49.998;19.880;2023-03-19T12:17:23;197.98;;;153.43;;
18267;SDS011;9260;49.998;19.880;2023-03-19T12:27:50;192.43;;;148.68;;
18267;SDS011;9260;49.998;19.880;2023-03-19T12:37:59;186.95;;;145.00;;
18267;SDS011;9260;49.998;19.880;2023-03-19T12:48:09;199.10;;;159.10;;
18267;SDS011;9260;49.998;19.880;2023-03-19T12:58:19;199.57;;;156.05;;
18267;SDS011;9260;49.998;19.880;2023-03-19T13:08:32;190.55;;;143.68;;
18267;SDS011;9260;49.998;19.880;2023-03-19T13:18:45;201.80;;;150.23;;
18267;SDS011;9260;49.998;19.880;2023-03-19T13:29:01;199.05;;;142.02;;
18267;SDS011;9260;49.998;19.880;2023-03-19T13:39:14;207.20;;;144.55;;
18267;SDS011;9260;49.998;19.880;2023-03-19T13:49:32;207.57;;;147.70;;
18267;SDS011;9260;49.998;19.880;2023-03-19T13:59:38;202.73;;;144.05;;
18267;SDS011;9260;49.998;19.880;2023-03-19T14:09:44;208.57;;;147.65;;
18267;SDS011;9260;49.998;19.880;2023-03-19T14:19:51;213.82;;;141.90;;
18267;SDS011;9260;49.998;19.880;2023-03-19T14:29:56;214.98;;;132.85;;
18267;SDS011;9260;49.998;19.880;2023-03-19T14:40:08;220.85;;;126.43;;
18267;SDS011;9260;49.998;19.880;2023-03-19T14:50:19;224.03;;;122.23;;
18267;SDS011;9260;49.998;19.880;2023-03-19T15:00:41;223.03;;;115.37;;
18267;SDS011;9260;49.998;19.880;2023-03-19T15:10:49;223.23;;;114.93;;
18267;SDS011;9260;49.998;19.880;2023-03-19T15:21:07;222.07;;;109.67;;
18267;SDS011;9260;49.998;19.880;2023-03-19T15:31:10;229.90;;;117.50;;
18267;SDS011;9260;49.998;19.880;2023-03-19T15:41:34;222.07;;;112.57;;
18267;SDS011;9260;49.998;19.880;2023-03-19T15:51:40;215.73;;;111.33;;
18267;SDS011;9260;49.998;19.880;2023-03-19T16:01:56;216.43;;;100.53;;
18267;SDS011;9260;49.998;19.880;2023-03-19T16:12:02;211.67;;;106.83;;
18267;SDS011;9260;49.998;19.880;2023-03-19T16:22:34;209.70;;;95.83;;
18267;SDS011;9260;49.998;19.880;2023-03-19T16:32:38;212.40;;;100.30;;
18267;SDS011;9260;49.998;19.880;2023-03-19T16:42:44;213.33;;;104.40;;
18267;SDS011;9260;49.998;19.880;2023-03-19T16:52:49;210.00;;;95.63;;
18267;SDS011;9260;49.998;19.880;2023-03-19T17:02:54;206.80;;;93.00;;
18267;SDS011;9260;49.998;19.880;2023-03-19T17:12:58;218.20;;;96.13;;
18267;SDS011;9260;49.998;19.880;2023-03-19T17:23:10;213.77;;;97.03;;
18267;SDS011;9260;49.998;19.880;2023-03-19T17:33:18;215.43;;;90.30;;
18267;SDS011;9260;49.998;19.880;2023-03-19T17:43:27;217.63;;;91.27;;
18267;SDS011;9260;49.998;19.880;2023-03-19T17:53:30;225.63;;;97.57;;
18267;SDS011;9260;49.998;19.880;2023-03-19T18:03:35;216.47;;;95.73;;
18267;SDS011;9260;49.998;19.880;2023-03-19T18:13:39;216.40;;;96.73;;
18267;SDS011;9260;49.998;19.880;2023-03-19T18:23:47;213.33;;;92.47;;
18267;SDS011;9260;49.998;19.880;2023-03-19T18:33:52;215.27;;;101.73;;
18267;SDS011;9260;49.998;19.880;2023-03-19T18:44:00;204.90;;;90.67;;
18267;SDS011;9260;49.998;19.880;2023-03-19T18:54:04;215.60;;;101.80;;
18267;SDS011;9260;49.998;19.880;2023-03-19T19:04:12;220.70;;;99.57;;
18267;SDS011;9260;49.998;19.880;2023-03-19T19:14:17;206.90;;;92.00;;
18267;SDS011;9260;49.998;19.880;2023-03-19T19:24:25;217.27;;;94.87;;
18267;SDS011;9260;49.998;19.880;2023-03-19T19:34:28;213.07;;;93.87;;
18267;SDS011;9260;49.998;19.880;2023-03-19T19:44:33;213.73;;;96.00;;
18267;SDS011;9260;49.998;19.880;2023-03-19T19:54:36;217.33;;;98.33;;
18267;SDS011;9260;49.998;19.880;2023-03-19T20:04:41;214.53;;;96.43;;
18267;SDS011;9260;49.998;19.880;2023-03-19T20:14:45;211.70;;;94.00;;
18267;SDS011;9260;49.998;19.880;2023-03-19T20:24:52;216.47;;;95.07;;
18267;SDS011;9260;49.998;19.880;2023-03-19T20:34:55;218.93;;;97.83;;
18267;SDS011;9260;49.998;19.880;2023-03-19T20:45:02;210.17;;;96.03;;
18267;SDS011;9260;49.998;19.880;2023-03-19T20:55:08;220.63;;;99.43;;
18267;SDS011;9260;49.998;19.880;2023-03-19T21:05:19;222.67;;;97.93;;
18267;SDS011;9260;49.998;19.880;2023-03-19T21:15:24;224.07;;;101.43;;
18267;SDS011;9260;49.998;19.880;2023-03-19T21:25:29;221.90;;;100.83;;
18267;SDS011;9260;49.998;19.880;2023-03-19T21:35:34;232.00;;;108.70;;
18267;SDS011;9260;49.998;19.880;2023-03-19T21:45:39;239.13;;;110.10;;
18267;SDS011;9260;49.998;19.880;2023-03-19T21:55:44;239.60;;;114.47;;
18267;SDS011;9260;49.998;19.880;2023-03-19T22:05:50;253.57;;;114.10;;
18267;SDS011;9260;49.998;19.880;2023-03-19T22:15:54;244.43;;;108.53;;
18267;SDS011;9260;49.998;19.880;2023-03-19T22:26:02;257.23;;;114.97;;
18267;SDS011;9260;49.998;19.880;2023-03-19T22:36:07;270.60;;;120.03;;
18267;SDS011;9260;49.998;19.880;2023-03-19T22:46:16;277.97;;;121.80;;
18267;SDS011;9260;49.998;19.880;2023-03-19T22:56:21;263.20;;;117.60;;
18267;SDS011;9260;49.998;19.880;2023-03-19T23:06:26;258.03;;;113.03;;
18267;SDS011;9260;49.998;19.880;2023-03-19T23:16:31;254.20;;;121.50;;
18267;SDS011;9260;49.998;19.880;2023-03-19T23:26:36;267.77;;;125.20;;
18267;SDS011;9260;49.998;19.880;2023-03-19T23:36:42;271.20;;;126.27;;
18267;SDS011;9260;49.998;19.880;2023-03-19T23:46:48;259.80;;;124.93;;
18267;SDS011;9260;49.998;19.880;2023-03-19T23:56:53;241.30;;;115.43;;
